sensor_id;sensor_type;location;lat;lon;timestamp;temperature;humidity
35129;DHT22;21301;43.626;10.580;2022-08-19T00:01:52;24.60;99.90
35129;DHT22;21301;43.626;10.580;2022-08-19T00:04:21;24.50;99.90
35129;DHT22;21301;43.626;10.580;2022-08-19T00:06:47;23.90;99.90
35129;DHT22;21301;43.626;10.580;2022-08-19T00:09:16;23.80;99.90
35129;DHT22;21301;43.626;10.580;2022-08-19T00:11:42;24.00;99.90
35129;DHT22;21301;43.626;10.580;2022-08-19T00:14:10;23.70;99.90
35129;DHT22;21301;43.626;10.580;2022-08-19T00:16:38;23.60;99.90
35129;DHT22;21301;43.626;10.580;2022-08-19T00:19:05;23.60;99.90
35129;DHT22;21301;43.626;10.580;2022-08-19T00:21:31;23.70;99.90
35129;DHT22;21301;43.626;10.580;2022-08-19T00:23:57;23.90;99.90
35129;DHT22;21301;43.626;10.580;2022-08-19T00:26:25;24.00;99.90
35129;DHT22;21301;43.626;10.580;2022-08-19T00:28:51;24.10;99.90
35129;DHT22;21301;43.626;10.580;2022-08-19T00:31:17;24.10;99.90
35129;DHT22;21301;43.626;10.580;2022-08-19T00:33:43;24.10;99.90
35129;DHT22;21301;43.626;10.580;2022-08-19T00:36:09;24.20;99.90
35129;DHT22;21301;43.626;10.580;2022-08-19T00:38:37;24.10;99.90
35129;DHT22;21301;43.626;10.580;2022-08-19T00:41:07;23.60;99.90
35129;DHT22;21301;43.626;10.580;2022-08-19T00:43:33;23.70;99.90
35129;DHT22;21301;43.626;10.580;2022-08-19T00:45:59;23.40;99.90
35129;DHT22;21301;43.626;10.580;2022-08-19T00:48:25;23.20;99.90
35129;DHT22;21301;43.626;10.580;2022-08-19T00:50:52;23.00;99.90
35129;DHT22;21301;43.626;10.580;2022-08-19T00:53:22;22.90;99.90
35129;DHT22;21301;43.626;10.580;2022-08-19T00:55:51;22.70;99.90
35129;DHT22;21301;43.626;10.580;2022-08-19T00:58:20;22.60;99.90
35129;DHT22;21301;43.626;10.580;2022-08-19T01:00:47;22.70;99.90
35129;DHT22;21301;43.626;10.580;2022-08-19T01:03:17;22.50;99.90
35129;DHT22;21301;43.626;10.580;2022-08-19T01:05:45;22.40;99.90
35129;DHT22;21301;43.626;10.580;2022-08-19T01:08:11;22.20;99.90
35129;DHT22;21301;43.626;10.580;2022-08-19T01:10:45;22.20;99.90
35129;DHT22;21301;43.626;10.580;2022-08-19T01:13:15;22.10;99.90
35129;DHT22;21301;43.626;10.580;2022-08-19T01:15:48;22.10;99.90
35129;DHT22;21301;43.626;10.580;2022-08-19T01:18:17;22.10;99.90
35129;DHT22;21301;43.626;10.580;2022-08-19T01:20:43;22.10;99.90
35129;DHT22;21301;43.626;10.580;2022-08-19T01:23:10;22.10;99.90
35129;DHT22;21301;43.626;10.580;2022-08-19T01:25:51;22.30;99.90
35129;DHT22;21301;43.626;10.580;2022-08-19T01:28:21;22.50;99.90
35129;DHT22;21301;43.626;10.580;2022-08-19T01:30:48;22.70;99.90
35129;DHT22;21301;43.626;10.580;2022-08-19T01:33:14;22.80;99.90
35129;DHT22;21301;43.626;10.580;2022-08-19T01:35:41;23.00;99.90
35129;DHT22;21301;43.626;10.580;2022-08-19T01:38:10;23.20;99.90
35129;DHT22;21301;43.626;10.580;2022-08-19T01:40:38;23.40;99.90
35129;DHT22;21301;43.626;10.580;2022-08-19T01:43:05;23.60;99.90
35129;DHT22;21301;43.626;10.580;2022-08-19T01:45:33;23.70;99.90
35129;DHT22;21301;43.626;10.580;2022-08-19T01:48:00;23.80;99.90
35129;DHT22;21301;43.626;10.580;2022-08-19T01:50:26;23.80;99.90
35129;DHT22;21301;43.626;10.580;2022-08-19T01:52:53;23.90;99.90
35129;DHT22;21301;43.626;10.580;2022-08-19T01:55:21;23.90;99.90
35129;DHT22;21301;43.626;10.580;2022-08-19T01:57:53;23.90;99.90
35129;DHT22;21301;43.626;10.580;2022-08-19T02:00:23;23.70;99.90
35129;DHT22;21301;43.626;10.580;2022-08-19T02:02:49;23.50;99.90
35129;DHT22;21301;43.626;10.580;2022-08-19T02:05:15;23.30;99.90
35129;DHT22;21301;43.626;10.580;2022-08-19T02:07:44;23.20;99.90
35129;DHT22;21301;43.626;10.580;2022-08-19T02:10:13;23.10;99.90
35129;DHT22;21301;43.626;10.580;2022-08-19T02:12:39;23.00;99.90
35129;DHT22;21301;43.626;10.580;2022-08-19T02:15:06;22.90;99.90
35129;DHT22;21301;43.626;10.580;2022-08-19T02:17:32;22.90;99.90
35129;DHT22;21301;43.626;10.580;2022-08-19T02:19:58;22.90;99.90
35129;DHT22;21301;43.626;10.580;2022-08-19T02:22:24;22.80;99.90
35129;DHT22;21301;43.626;10.580;2022-08-19T02:24:54;22.80;99.90
35129;DHT22;21301;43.626;10.580;2022-08-19T02:27:21;22.70;99.90
35129;DHT22;21301;43.626;10.580;2022-08-19T02:29:47;22.70;99.90
35129;DHT22;21301;43.626;10.580;2022-08-19T02:32:14;22.70;99.90
35129;DHT22;21301;43.626;10.580;2022-08-19T02:34:40;22.60;99.90
35129;DHT22;21301;43.626;10.580;2022-08-19T02:37:06;22.40;99.90
35129;DHT22;21301;43.626;10.580;2022-08-19T02:39:52;22.30;99.90
35129;DHT22;21301;43.626;10.580;2022-08-19T02:42:18;22.30;99.90
35129;DHT22;21301;43.626;10.580;2022-08-19T02:44:44;22.60;99.90
35129;DHT22;21301;43.626;10.580;2022-08-19T02:47:10;22.80;99.90
35129;DHT22;21301;43.626;10.580;2022-08-19T02:49:36;22.90;99.90
35129;DHT22;21301;43.626;10.580;2022-08-19T02:52:02;23.00;99.90
35129;DHT22;21301;43.626;10.580;2022-08-19T02:54:28;23.20;99.90
35129;DHT22;21301;43.626;10.580;2022-08-19T02:56:54;23.40;99.90
35129;DHT22;21301;43.626;10.580;2022-08-19T02:59:20;23.40;99.90
35129;DHT22;21301;43.626;10.580;2022-08-19T03:01:46;23.40;99.90
35129;DHT22;21301;43.626;10.580;2022-08-19T03:04:13;23.40;99.90
35129;DHT22;21301;43.626;10.580;2022-08-19T03:06:42;23.20;99.90
35129;DHT22;21301;43.626;10.580;2022-08-19T03:09:09;23.20;99.90
35129;DHT22;21301;43.626;10.580;2022-08-19T03:11:35;23.30;99.90
35129;DHT22;21301;43.626;10.580;2022-08-19T03:14:02;23.10;99.90
35129;DHT22;21301;43.626;10.580;2022-08-19T03:16:30;23.20;99.90
35129;DHT22;21301;43.626;10.580;2022-08-19T03:18:57;23.10;99.90
35129;DHT22;21301;43.626;10.580;2022-08-19T03:21:30;23.00;99.90
35129;DHT22;21301;43.626;10.580;2022-08-19T03:23:58;22.70;99.90
35129;DHT22;21301;43.626;10.580;2022-08-19T03:26:25;22.70;99.90
35129;DHT22;21301;43.626;10.580;2022-08-19T03:28:51;22.80;99.90
35129;DHT22;21301;43.626;10.580;2022-08-19T03:31:19;23.00;99.90
35129;DHT22;21301;43.626;10.580;2022-08-19T03:33:48;23.10;99.90
35129;DHT22;21301;43.626;10.580;2022-08-19T03:36:20;23.30;99.90
35129;DHT22;21301;43.626;10.580;2022-08-19T03:38:49;23.40;99.90
35129;DHT22;21301;43.626;10.580;2022-08-19T03:41:24;23.00;99.90
35129;DHT22;21301;43.626;10.580;2022-08-19T03:43:51;22.50;99.90
35129;DHT22;21301;43.626;10.580;2022-08-19T03:46:20;22.10;99.90
35129;DHT22;21301;43.626;10.580;2022-08-19T03:48:48;21.80;99.90
35129;DHT22;21301;43.626;10.580;2022-08-19T03:51:23;21.70;99.90
35129;DHT22;21301;43.626;10.580;2022-08-19T03:53:50;21.60;99.90
35129;DHT22;21301;43.626;10.580;2022-08-19T03:56:17;21.50;99.90
35129;DHT22;21301;43.626;10.580;2022-08-19T03:58:43;21.50;99.90
35129;DHT22;21301;43.626;10.580;2022-08-19T04:01:12;21.40;99.90
35129;DHT22;21301;43.626;10.580;2022-08-19T04:03:40;21.40;99.90
35129;DHT22;21301;43.626;10.580;2022-08-19T04:06:17;21.40;99.90
35129;DHT22;21301;43.626;10.580;2022-08-19T04:08:45;21.40;99.90
35129;DHT22;21301;43.626;10.580;2022-08-19T04:11:17;21.40;99.90
35129;DHT22;21301;43.626;10.580;2022-08-19T04:13:43;21.30;99.90
35129;DHT22;21301;43.626;10.580;2022-08-19T04:16:10;21.30;99.90
35129;DHT22;21301;43.626;10.580;2022-08-19T04:18:38;21.20;99.90
35129;DHT22;21301;43.626;10.580;2022-08-19T04:21:05;21.20;99.90
35129;DHT22;21301;43.626;10.580;2022-08-19T04:23:33;21.30;99.90
35129;DHT22;21301;43.626;10.580;2022-08-19T04:25:59;21.30;99.90
35129;DHT22;21301;43.626;10.580;2022-08-19T04:28:25;21.30;99.90
35129;DHT22;21301;43.626;10.580;2022-08-19T04:30:53;21.30;99.90
35129;DHT22;21301;43.626;10.580;2022-08-19T04:33:22;21.20;99.90
35129;DHT22;21301;43.626;10.580;2022-08-19T04:35:50;21.20;99.90
35129;DHT22;21301;43.626;10.580;2022-08-19T04:38:19;21.30;99.90
35129;DHT22;21301;43.626;10.580;2022-08-19T04:40:47;21.30;99.90
35129;DHT22;21301;43.626;10.580;2022-08-19T04:43:33;21.40;99.90
35129;DHT22;21301;43.626;10.580;2022-08-19T04:46:05;21.30;99.90
35129;DHT22;21301;43.626;10.580;2022-08-19T04:48:31;21.30;99.90
35129;DHT22;21301;43.626;10.580;2022-08-19T04:50:57;21.50;99.90
35129;DHT22;21301;43.626;10.580;2022-08-19T04:53:28;21.70;99.90
35129;DHT22;21301;43.626;10.580;2022-08-19T04:55:58;22.00;99.90
35129;DHT22;21301;43.626;10.580;2022-08-19T04:58:26;22.20;99.90
35129;DHT22;21301;43.626;10.580;2022-08-19T05:00:53;22.40;99.90
35129;DHT22;21301;43.626;10.580;2022-08-19T05:03:20;22.50;99.90
35129;DHT22;21301;43.626;10.580;2022-08-19T05:05:47;22.60;99.90
35129;DHT22;21301;43.626;10.580;2022-08-19T05:08:19;22.60;99.90
35129;DHT22;21301;43.626;10.580;2022-08-19T05:10:46;22.50;99.90
35129;DHT22;21301;43.626;10.580;2022-08-19T05:13:13;22.40;99.90
35129;DHT22;21301;43.626;10.580;2022-08-19T05:15:40;22.50;99.90
35129;DHT22;21301;43.626;10.580;2022-08-19T05:18:06;22.60;99.90
35129;DHT22;21301;43.626;10.580;2022-08-19T05:20:50;22.90;99.90
35129;DHT22;21301;43.626;10.580;2022-08-19T05:23:35;23.30;99.90
35129;DHT22;21301;43.626;10.580;2022-08-19T05:26:01;23.50;99.90
35129;DHT22;21301;43.626;10.580;2022-08-19T05:28:26;23.60;99.90
35129;DHT22;21301;43.626;10.580;2022-08-19T05:30:53;23.80;99.90
35129;DHT22;21301;43.626;10.580;2022-08-19T05:33:22;23.90;99.90
35129;DHT22;21301;43.626;10.580;2022-08-19T05:35:48;24.00;99.90
35129;DHT22;21301;43.626;10.580;2022-08-19T05:38:16;24.00;99.90
35129;DHT22;21301;43.626;10.580;2022-08-19T05:40:42;24.00;99.90
35129;DHT22;21301;43.626;10.580;2022-08-19T05:43:12;24.10;99.90
35129;DHT22;21301;43.626;10.580;2022-08-19T05:45:42;24.00;99.90
35129;DHT22;21301;43.626;10.580;2022-08-19T05:48:09;24.00;99.90
35129;DHT22;21301;43.626;10.580;2022-08-19T05:50:38;23.80;99.90
35129;DHT22;21301;43.626;10.580;2022-08-19T05:53:04;23.50;99.90
35129;DHT22;21301;43.626;10.580;2022-08-19T05:55:31;23.20;99.90
35129;DHT22;21301;43.626;10.580;2022-08-19T05:57:56;23.00;99.90
35129;DHT22;21301;43.626;10.580;2022-08-19T06:00:22;23.00;99.90
35129;DHT22;21301;43.626;10.580;2022-08-19T06:02:49;23.60;99.90
35129;DHT22;21301;43.626;10.580;2022-08-19T06:05:16;24.10;99.90
35129;DHT22;21301;43.626;10.580;2022-08-19T06:07:42;24.60;99.90
35129;DHT22;21301;43.626;10.580;2022-08-19T06:10:10;24.60;99.90
35129;DHT22;21301;43.626;10.580;2022-08-19T06:12:37;24.60;99.90
35129;DHT22;21301;43.626;10.580;2022-08-19T06:15:09;24.30;99.90
35129;DHT22;21301;43.626;10.580;2022-08-19T06:17:35;24.10;99.90
35129;DHT22;21301;43.626;10.580;2022-08-19T06:20:08;23.80;99.90
35129;DHT22;21301;43.626;10.580;2022-08-19T06:22:43;23.60;99.90
35129;DHT22;21301;43.626;10.580;2022-08-19T06:25:10;23.40;99.90
35129;DHT22;21301;43.626;10.580;2022-08-19T06:27:36;23.30;99.90
35129;DHT22;21301;43.626;10.580;2022-08-19T06:30:04;23.20;99.90
35129;DHT22;21301;43.626;10.580;2022-08-19T06:32:30;23.20;99.90
35129;DHT22;21301;43.626;10.580;2022-08-19T06:34:57;23.20;99.90
35129;DHT22;21301;43.626;10.580;2022-08-19T06:37:23;23.20;99.90
35129;DHT22;21301;43.626;10.580;2022-08-19T06:39:49;23.20;99.90
35129;DHT22;21301;43.626;10.580;2022-08-19T06:42:16;23.20;99.90
35129;DHT22;21301;43.626;10.580;2022-08-19T06:44:46;23.30;99.90
35129;DHT22;21301;43.626;10.580;2022-08-19T06:47:17;23.50;99.90
35129;DHT22;21301;43.626;10.580;2022-08-19T06:49:43;23.60;99.90
35129;DHT22;21301;43.626;10.580;2022-08-19T06:52:10;23.60;99.90
35129;DHT22;21301;43.626;10.580;2022-08-19T06:54:39;23.50;99.90
35129;DHT22;21301;43.626;10.580;2022-08-19T06:57:05;23.40;99.90
35129;DHT22;21301;43.626;10.580;2022-08-19T06:59:32;23.30;99.90
35129;DHT22;21301;43.626;10.580;2022-08-19T07:02:01;23.30;99.90
35129;DHT22;21301;43.626;10.580;2022-08-19T07:04:29;23.30;99.90
35129;DHT22;21301;43.626;10.580;2022-08-19T07:07:00;23.20;99.90
35129;DHT22;21301;43.626;10.580;2022-08-19T07:09:27;23.30;99.90
35129;DHT22;21301;43.626;10.580;2022-08-19T07:11:53;23.20;99.90
35129;DHT22;21301;43.626;10.580;2022-08-19T07:14:23;23.20;99.90
35129;DHT22;21301;43.626;10.580;2022-08-19T07:16:52;23.30;99.90
35129;DHT22;21301;43.626;10.580;2022-08-19T07:19:21;23.20;99.90
35129;DHT22;21301;43.626;10.580;2022-08-19T07:21:49;23.10;99.90
35129;DHT22;21301;43.626;10.580;2022-08-19T07:24:17;23.00;99.90
35129;DHT22;21301;43.626;10.580;2022-08-19T07:26:43;23.00;99.90
35129;DHT22;21301;43.626;10.580;2022-08-19T07:29:10;23.20;99.90
35129;DHT22;21301;43.626;10.580;2022-08-19T07:31:36;23.40;99.90
35129;DHT22;21301;43.626;10.580;2022-08-19T07:34:05;23.70;99.90
35129;DHT22;21301;43.626;10.580;2022-08-19T07:36:36;24.10;99.90
35129;DHT22;21301;43.626;10.580;2022-08-19T07:39:10;24.20;99.90
35129;DHT22;21301;43.626;10.580;2022-08-19T07:41:36;24.40;99.90
35129;DHT22;21301;43.626;10.580;2022-08-19T07:44:03;24.60;99.90
35129;DHT22;21301;43.626;10.580;2022-08-19T07:46:34;25.10;99.90
35129;DHT22;21301;43.626;10.580;2022-08-19T07:49:01;25.60;99.90
35129;DHT22;21301;43.626;10.580;2022-08-19T07:51:28;26.10;99.90
35129;DHT22;21301;43.626;10.580;2022-08-19T07:53:54;26.40;99.90
35129;DHT22;21301;43.626;10.580;2022-08-19T07:56:21;26.50;99.90
35129;DHT22;21301;43.626;10.580;2022-08-19T07:58:49;26.70;99.90
35129;DHT22;21301;43.626;10.580;2022-08-19T08:01:26;27.00;99.90
35129;DHT22;21301;43.626;10.580;2022-08-19T08:03:54;27.10;99.90
35129;DHT22;21301;43.626;10.580;2022-08-19T08:06:39;26.80;99.90
35129;DHT22;21301;43.626;10.580;2022-08-19T08:09:30;26.60;99.90
35129;DHT22;21301;43.626;10.580;2022-08-19T08:12:02;26.60;99.90
35129;DHT22;21301;43.626;10.580;2022-08-19T08:14:38;26.30;99.90
35129;DHT22;21301;43.626;10.580;2022-08-19T08:17:05;26.30;99.90
35129;DHT22;21301;43.626;10.580;2022-08-19T08:19:32;26.40;99.90
35129;DHT22;21301;43.626;10.580;2022-08-19T08:21:59;26.30;99.90
35129;DHT22;21301;43.626;10.580;2022-08-19T08:24:27;26.40;99.90
35129;DHT22;21301;43.626;10.580;2022-08-19T08:26:53;26.70;99.90
35129;DHT22;21301;43.626;10.580;2022-08-19T08:29:19;26.80;99.90
35129;DHT22;21301;43.626;10.580;2022-08-19T08:31:45;26.50;99.90
35129;DHT22;21301;43.626;10.580;2022-08-19T08:34:13;26.60;99.90
35129;DHT22;21301;43.626;10.580;2022-08-19T08:36:42;26.90;99.90
35129;DHT22;21301;43.626;10.580;2022-08-19T08:39:13;27.00;99.90
35129;DHT22;21301;43.626;10.580;2022-08-19T08:44:37;27.50;99.90
35129;DHT22;21301;43.626;10.580;2022-08-19T08:47:09;27.20;99.90
35129;DHT22;21301;43.626;10.580;2022-08-19T08:49:51;27.00;99.90
35129;DHT22;21301;43.626;10.580;2022-08-19T08:52:22;26.90;99.90
35129;DHT22;21301;43.626;10.580;2022-08-19T08:54:52;27.10;99.90
35129;DHT22;21301;43.626;10.580;2022-08-19T08:57:29;27.20;99.90
35129;DHT22;21301;43.626;10.580;2022-08-19T09:00:02;26.90;99.90
35129;DHT22;21301;43.626;10.580;2022-08-19T09:02:30;25.20;99.90
35129;DHT22;21301;43.626;10.580;2022-08-19T09:04:56;23.70;99.90
35129;DHT22;21301;43.626;10.580;2022-08-19T09:15:53;22.40;99.90
35129;DHT22;21301;43.626;10.580;2022-08-19T09:18:20;23.00;99.90
35129;DHT22;21301;43.626;10.580;2022-08-19T09:20:46;23.20;99.90
35129;DHT22;21301;43.626;10.580;2022-08-19T09:23:15;22.90;99.90
35129;DHT22;21301;43.626;10.580;2022-08-19T09:25:41;22.80;99.90
35129;DHT22;21301;43.626;10.580;2022-08-19T09:28:07;22.90;99.90
35129;DHT22;21301;43.626;10.580;2022-08-19T09:30:39;22.90;99.90
35129;DHT22;21301;43.626;10.580;2022-08-19T09:33:05;22.70;99.90
35129;DHT22;21301;43.626;10.580;2022-08-19T09:35:32;22.60;99.90
35129;DHT22;21301;43.626;10.580;2022-08-19T09:37:59;22.70;99.90
35129;DHT22;21301;43.626;10.580;2022-08-19T09:40:27;23.10;99.90
35129;DHT22;21301;43.626;10.580;2022-08-19T09:42:54;23.50;99.90
35129;DHT22;21301;43.626;10.580;2022-08-19T09:45:21;23.70;99.90
35129;DHT22;21301;43.626;10.580;2022-08-19T09:47:51;23.80;99.90
35129;DHT22;21301;43.626;10.580;2022-08-19T09:50:18;23.50;99.90
35129;DHT22;21301;43.626;10.580;2022-08-19T09:52:45;23.10;99.90
35129;DHT22;21301;43.626;10.580;2022-08-19T09:55:11;23.00;99.90
35129;DHT22;21301;43.626;10.580;2022-08-19T09:57:38;23.10;99.90
35129;DHT22;21301;43.626;10.580;2022-08-19T10:00:06;23.10;99.90
35129;DHT22;21301;43.626;10.580;2022-08-19T10:02:33;23.00;99.90
35129;DHT22;21301;43.626;10.580;2022-08-19T10:04:59;23.20;99.90
35129;DHT22;21301;43.626;10.580;2022-08-19T10:07:43;23.40;99.90
35129;DHT22;21301;43.626;10.580;2022-08-19T10:10:09;23.60;99.90
35129;DHT22;21301;43.626;10.580;2022-08-19T10:12:35;23.60;99.90
35129;DHT22;21301;43.626;10.580;2022-08-19T10:15:03;23.70;99.90
35129;DHT22;21301;43.626;10.580;2022-08-19T10:17:29;23.80;99.90
35129;DHT22;21301;43.626;10.580;2022-08-19T10:19:55;23.80;99.90
35129;DHT22;21301;43.626;10.580;2022-08-19T10:22:21;23.90;99.90
35129;DHT22;21301;43.626;10.580;2022-08-19T10:24:47;24.10;99.90
35129;DHT22;21301;43.626;10.580;2022-08-19T10:27:15;24.10;99.90
35129;DHT22;21301;43.626;10.580;2022-08-19T10:29:41;24.20;99.90
35129;DHT22;21301;43.626;10.580;2022-08-19T10:32:08;24.20;99.90
35129;DHT22;21301;43.626;10.580;2022-08-19T10:34:38;24.10;99.90
35129;DHT22;21301;43.626;10.580;2022-08-19T10:37:05;24.00;99.90
35129;DHT22;21301;43.626;10.580;2022-08-19T10:39:33;23.90;99.90
35129;DHT22;21301;43.626;10.580;2022-08-19T10:42:07;24.00;99.90
35129;DHT22;21301;43.626;10.580;2022-08-19T10:44:33;23.80;99.90
35129;DHT22;21301;43.626;10.580;2022-08-19T10:47:01;23.60;99.90
35129;DHT22;21301;43.626;10.580;2022-08-19T10:49:28;23.80;99.90
35129;DHT22;21301;43.626;10.580;2022-08-19T10:51:55;23.80;99.90
35129;DHT22;21301;43.626;10.580;2022-08-19T10:54:40;23.70;99.90
35129;DHT22;21301;43.626;10.580;2022-08-19T10:57:24;23.90;99.90
35129;DHT22;21301;43.626;10.580;2022-08-19T10:59:55;24.30;99.90
35129;DHT22;21301;43.626;10.580;2022-08-19T11:02:22;24.60;99.90
35129;DHT22;21301;43.626;10.580;2022-08-19T11:04:49;24.70;99.90
35129;DHT22;21301;43.626;10.580;2022-08-19T11:07:17;25.00;99.90
35129;DHT22;21301;43.626;10.580;2022-08-19T11:09:43;25.20;99.90
35129;DHT22;21301;43.626;10.580;2022-08-19T11:12:09;25.30;99.90
35129;DHT22;21301;43.626;10.580;2022-08-19T11:14:36;25.50;99.90
35129;DHT22;21301;43.626;10.580;2022-08-19T11:17:03;25.40;99.90
35129;DHT22;21301;43.626;10.580;2022-08-19T11:19:30;25.40;99.90
35129;DHT22;21301;43.626;10.580;2022-08-19T11:21:57;25.10;99.90
35129;DHT22;21301;43.626;10.580;2022-08-19T11:24:24;25.00;99.90
35129;DHT22;21301;43.626;10.580;2022-08-19T11:26:52;24.90;99.90
35129;DHT22;21301;43.626;10.580;2022-08-19T11:29:22;24.80;99.90
35129;DHT22;21301;43.626;10.580;2022-08-19T11:31:51;24.60;99.90
35129;DHT22;21301;43.626;10.580;2022-08-19T11:34:22;24.60;99.90
35129;DHT22;21301;43.626;10.580;2022-08-19T11:36:50;24.60;99.90
35129;DHT22;21301;43.626;10.580;2022-08-19T11:39:18;24.60;99.90
35129;DHT22;21301;43.626;10.580;2022-08-19T11:41:44;24.80;99.90
35129;DHT22;21301;43.626;10.580;2022-08-19T11:44:10;24.90;99.90
35129;DHT22;21301;43.626;10.580;2022-08-19T11:46:37;25.30;99.90
35129;DHT22;21301;43.626;10.580;2022-08-19T11:49:04;25.40;99.90
35129;DHT22;21301;43.626;10.580;2022-08-19T11:51:31;25.40;99.90
35129;DHT22;21301;43.626;10.580;2022-08-19T11:54:00;25.70;99.90
35129;DHT22;21301;43.626;10.580;2022-08-19T11:56:26;25.60;99.90
35129;DHT22;21301;43.626;10.580;2022-08-19T11:58:53;25.90;99.90
35129;DHT22;21301;43.626;10.580;2022-08-19T12:01:21;25.90;99.90
35129;DHT22;21301;43.626;10.580;2022-08-19T12:03:49;25.50;99.90
35129;DHT22;21301;43.626;10.580;2022-08-19T12:06:20;25.60;99.90
35129;DHT22;21301;43.626;10.580;2022-08-19T12:08:49;25.40;99.90
35129;DHT22;21301;43.626;10.580;2022-08-19T12:11:15;25.40;99.90
35129;DHT22;21301;43.626;10.580;2022-08-19T12:13:42;25.40;99.90
35129;DHT22;21301;43.626;10.580;2022-08-19T12:16:13;25.40;99.90
35129;DHT22;21301;43.626;10.580;2022-08-19T12:18:40;25.50;99.90
35129;DHT22;21301;43.626;10.580;2022-08-19T12:21:16;25.70;99.90
35129;DHT22;21301;43.626;10.580;2022-08-19T12:23:43;26.00;99.90
35129;DHT22;21301;43.626;10.580;2022-08-19T12:26:10;26.00;99.90
35129;DHT22;21301;43.626;10.580;2022-08-19T12:28:38;25.90;99.90
35129;DHT22;21301;43.626;10.580;2022-08-19T12:31:04;25.90;99.90
35129;DHT22;21301;43.626;10.580;2022-08-19T12:33:32;26.00;99.90
35129;DHT22;21301;43.626;10.580;2022-08-19T12:36:04;26.00;99.90
35129;DHT22;21301;43.626;10.580;2022-08-19T12:38:31;25.90;99.90
35129;DHT22;21301;43.626;10.580;2022-08-19T12:40:58;25.80;99.90
35129;DHT22;21301;43.626;10.580;2022-08-19T12:43:24;26.00;99.90
35129;DHT22;21301;43.626;10.580;2022-08-19T12:45:50;26.40;99.90
35129;DHT22;21301;43.626;10.580;2022-08-19T12:48:16;26.40;99.90
35129;DHT22;21301;43.626;10.580;2022-08-19T12:50:43;26.60;99.90
35129;DHT22;21301;43.626;10.580;2022-08-19T12:53:11;26.60;99.90
35129;DHT22;21301;43.626;10.580;2022-08-19T12:55:37;26.70;99.90
35129;DHT22;21301;43.626;10.580;2022-08-19T12:58:03;26.80;99.90
35129;DHT22;21301;43.626;10.580;2022-08-19T13:00:29;27.00;99.90
35129;DHT22;21301;43.626;10.580;2022-08-19T13:02:56;27.10;99.90
35129;DHT22;21301;43.626;10.580;2022-08-19T13:05:28;27.30;99.90
35129;DHT22;21301;43.626;10.580;2022-08-19T13:07:55;27.20;99.90
35129;DHT22;21301;43.626;10.580;2022-08-19T13:10:24;27.30;99.90
35129;DHT22;21301;43.626;10.580;2022-08-19T13:12:51;27.40;99.90
35129;DHT22;21301;43.626;10.580;2022-08-19T13:15:20;27.70;99.90
35129;DHT22;21301;43.626;10.580;2022-08-19T13:17:47;27.70;99.90
35129;DHT22;21301;43.626;10.580;2022-08-19T13:20:16;27.70;99.90
35129;DHT22;21301;43.626;10.580;2022-08-19T13:22:42;27.50;99.90
35129;DHT22;21301;43.626;10.580;2022-08-19T13:25:08;27.40;99.90
35129;DHT22;21301;43.626;10.580;2022-08-19T13:27:35;27.40;99.90
35129;DHT22;21301;43.626;10.580;2022-08-19T13:30:03;27.40;99.90
35129;DHT22;21301;43.626;10.580;2022-08-19T13:32:51;27.10;99.90
35129;DHT22;21301;43.626;10.580;2022-08-19T13:35:37;27.20;99.90
35129;DHT22;21301;43.626;10.580;2022-08-19T13:38:03;27.20;99.90
35129;DHT22;21301;43.626;10.580;2022-08-19T13:40:31;27.30;99.90
35129;DHT22;21301;43.626;10.580;2022-08-19T13:43:00;27.50;99.90
35129;DHT22;21301;43.626;10.580;2022-08-19T13:45:28;27.60;99.90
35129;DHT22;21301;43.626;10.580;2022-08-19T13:47:56;27.70;99.90
35129;DHT22;21301;43.626;10.580;2022-08-19T13:50:25;27.80;99.90
35129;DHT22;21301;43.626;10.580;2022-08-19T13:52:52;27.80;99.90
35129;DHT22;21301;43.626;10.580;2022-08-19T13:55:18;27.90;99.90
35129;DHT22;21301;43.626;10.580;2022-08-19T13:57:44;27.90;99.90
35129;DHT22;21301;43.626;10.580;2022-08-19T14:00:14;27.80;99.90
35129;DHT22;21301;43.626;10.580;2022-08-19T14:02:40;27.90;99.90
35129;DHT22;21301;43.626;10.580;2022-08-19T14:05:09;27.80;99.90
35129;DHT22;21301;43.626;10.580;2022-08-19T14:07:37;27.80;99.90
35129;DHT22;21301;43.626;10.580;2022-08-19T14:10:08;28.10;99.90
35129;DHT22;21301;43.626;10.580;2022-08-19T14:12:35;28.40;99.90
35129;DHT22;21301;43.626;10.580;2022-08-19T14:15:02;28.60;99.90
35129;DHT22;21301;43.626;10.580;2022-08-19T14:17:30;28.50;99.90
35129;DHT22;21301;43.626;10.580;2022-08-19T14:20:00;28.90;99.90
35129;DHT22;21301;43.626;10.580;2022-08-19T14:22:28;28.90;99.90
35129;DHT22;21301;43.626;10.580;2022-08-19T14:24:53;28.90;99.90
35129;DHT22;21301;43.626;10.580;2022-08-19T14:27:19;29.30;99.90
35129;DHT22;21301;43.626;10.580;2022-08-19T14:29:45;29.20;99.90
35129;DHT22;21301;43.626;10.580;2022-08-19T14:32:11;29.30;99.90
35129;DHT22;21301;43.626;10.580;2022-08-19T14:34:37;28.90;99.90
35129;DHT22;21301;43.626;10.580;2022-08-19T14:37:03;28.60;99.90
35129;DHT22;21301;43.626;10.580;2022-08-19T14:39:29;28.50;99.90
35129;DHT22;21301;43.626;10.580;2022-08-19T14:41:55;28.20;99.90
35129;DHT22;21301;43.626;10.580;2022-08-19T14:44:22;27.90;99.90
35129;DHT22;21301;43.626;10.580;2022-08-19T14:46:48;27.70;99.90
35129;DHT22;21301;43.626;10.580;2022-08-19T14:49:14;27.50;99.90
35129;DHT22;21301;43.626;10.580;2022-08-19T14:51:40;27.20;99.90
35129;DHT22;21301;43.626;10.580;2022-08-19T14:54:05;26.90;99.90
35129;DHT22;21301;43.626;10.580;2022-08-19T14:56:31;26.80;99.90
35129;DHT22;21301;43.626;10.580;2022-08-19T14:58:57;26.70;99.90
35129;DHT22;21301;43.626;10.580;2022-08-19T15:01:26;26.40;99.90
35129;DHT22;21301;43.626;10.580;2022-08-19T15:03:52;26.20;99.90
35129;DHT22;21301;43.626;10.580;2022-08-19T15:06:19;26.20;99.90
35129;DHT22;21301;43.626;10.580;2022-08-19T15:08:45;26.40;99.90
35129;DHT22;21301;43.626;10.580;2022-08-19T15:11:14;26.40;99.90
35129;DHT22;21301;43.626;10.580;2022-08-19T15:13:42;26.50;99.90
35129;DHT22;21301;43.626;10.580;2022-08-19T15:16:09;26.90;99.90
35129;DHT22;21301;43.626;10.580;2022-08-19T15:18:35;27.10;99.90
35129;DHT22;21301;43.626;10.580;2022-08-19T15:21:02;27.20;99.90
35129;DHT22;21301;43.626;10.580;2022-08-19T15:23:29;27.10;99.90
35129;DHT22;21301;43.626;10.580;2022-08-19T15:25:55;27.00;99.90
35129;DHT22;21301;43.626;10.580;2022-08-19T15:28:22;26.80;99.90
35129;DHT22;21301;43.626;10.580;2022-08-19T15:30:48;26.50;99.90
35129;DHT22;21301;43.626;10.580;2022-08-19T15:33:13;26.30;99.90